Time;durP1;ratioP1;P1;durP2;ratioP2;P2;SDS_P1;SDS_P2;PMS_P1;PMS_P2;Temp;Humidity;BMP_temperature;BMP_pressure;BME280_temperature;BME280_humidity;BME280_pressure;Samples;Min_cycle;Max_cycle;Signal;HPM_P1;HPM_P2
2022/09/20 00:01:16;;;;;;;11.50;2.78;;;;;;;;;;4950260;28;20084;-71
2022/09/20 00:03:43;;;;;;;11.50;2.72;;;;;;;;;;4949125;29;20054;-71
2022/09/20 00:06:10;;;;;;;15.82;3.03;;;;;;;;;;4950115;29;20031;-70
2022/09/20 00:08:37;;;;;;;11.15;2.88;;;;;;;;;;4949318;28;20031;-71
2022/09/20 00:11:08;;;;;;;15.43;3.10;;;;;;;;;;4948663;28;20492;-70
2022/09/20 00:13:35;;;;;;;11.10;3.17;;;;;;;;;;4952496;29;20430;-72
2022/09/20 00:16:04;;;;;;;12.98;3.05;;;;;;;;;;4952706;28;20027;-70
2022/09/20 00:18:30;;;;;;;12.90;2.90;;;;;;;;;;4952620;29;20035;-72
2022/09/20 00:20:56;;;;;;;13.00;3.55;;;;;;;;;;4953020;28;20032;-72
2022/09/20 00:23:21;;;;;;;14.68;2.88;;;;;;;;;;4949456;29;20078;-72
2022/09/20 00:25:55;;;;;;;15.05;3.33;;;;;;;;;;4950026;29;20032;-72
2022/09/20 00:28:21;;;;;;;12.65;2.75;;;;;;;;;;4958386;29;20078;-70
2022/09/20 00:30:48;;;;;;;11.52;3.63;;;;;;;;;;4959716;28;20061;-72
2022/09/20 00:33:14;;;;;;;18.67;3.35;;;;;;;;;;4961143;29;20396;-72
2022/09/20 00:35:43;;;;;;;12.85;2.88;;;;;;;;;;4957674;29;20031;-72
2022/09/20 00:38:09;;;;;;;15.13;3.40;;;;;;;;;;4958684;28;20034;-71
2022/09/20 00:40:35;;;;;;;15.43;3.75;;;;;;;;;;4959334;28;20027;-72
2022/09/20 00:43:01;;;;;;;15.90;3.58;;;;;;;;;;4962108;29;20047;-71
2022/09/20 00:45:29;;;;;;;13.05;3.20;;;;;;;;;;4964130;28;20046;-71
2022/09/20 00:47:55;;;;;;;17.85;3.47;;;;;;;;;;4968970;28;20019;-72
2022/09/20 00:50:34;;;;;;;17.65;3.60;;;;;;;;;;4970134;28;20031;-71
2022/09/20 00:53:06;;;;;;;15.63;3.05;;;;;;;;;;4962088;29;20020;-71
2022/09/20 00:55:34;;;;;;;15.80;3.55;;;;;;;;;;4961295;28;20468;-71
2022/09/20 00:58:00;;;;;;;14.27;2.92;;;;;;;;;;4961906;29;20028;-72
2022/09/20 01:00:27;;;;;;;14.73;3.55;;;;;;;;;;4962081;28;20053;-71
2022/09/20 01:02:56;;;;;;;15.60;2.80;;;;;;;;;;4969618;28;20015;-71
2022/09/20 01:05:22;;;;;;;16.30;3.42;;;;;;;;;;4971642;28;20007;-71
2022/09/20 01:07:50;;;;;;;13.73;3.00;;;;;;;;;;4968859;28;20383;-70
2022/09/20 01:10:16;;;;;;;13.65;2.92;;;;;;;;;;4977489;23;20058;-77
2022/09/20 01:12:42;;;;;;;17.15;3.60;;;;;;;;;;4953638;28;20081;-77
2022/09/20 01:15:09;;;;;;;15.45;3.53;;;;;;;;;;4953830;29;20194;-76
2022/09/20 01:17:36;;;;;;;17.45;4.15;;;;;;;;;;4953735;29;20031;-76
2022/09/20 01:20:11;;;;;;;22.92;7.88;;;;;;;;;;4953692;28;20395;-75
2022/09/20 01:22:52;;;;;;;18.58;4.43;;;;;;;;;;4952697;29;20117;-75
2022/09/20 01:25:37;;;;;;;11.18;2.70;;;;;;;;;;4953488;28;20395;-76
2022/09/20 01:28:03;;;;;;;14.25;2.78;;;;;;;;;;4953638;29;20031;-77
2022/09/20 01:30:35;;;;;;;13.98;3.67;;;;;;;;;;4953516;28;20163;-77
2022/09/20 01:33:19;;;;;;;14.68;3.33;;;;;;;;;;4953453;29;20024;-77
2022/09/20 01:35:47;;;;;;;14.35;3.22;;;;;;;;;;4953374;28;20046;-77
2022/09/20 01:38:18;;;;;;;20.92;2.53;;;;;;;;;;4953778;29;20298;-76
2022/09/20 01:40:49;;;;;;;13.88;2.92;;;;;;;;;;4953929;28;20114;-76
2022/09/20 01:43:21;;;;;;;12.18;3.13;;;;;;;;;;4956360;28;20031;-78
2022/09/20 01:45:48;;;;;;;14.07;2.58;;;;;;;;;;4964532;29;20116;-77
2022/09/20 01:48:36;;;;;;;17.90;3.80;;;;;;;;;;4958946;29;20035;-77
2022/09/20 01:51:21;;;;;;;13.77;2.90;;;;;;;;;;4954657;28;20106;-76
2022/09/20 01:53:54;;;;;;;21.10;6.70;;;;;;;;;;4953703;29;20027;-76
2022/09/20 01:56:39;;;;;;;21.98;6.82;;;;;;;;;;4970866;29;20126;-73
2022/09/20 01:59:06;;;;;;;18.60;7.00;;;;;;;;;;4952710;28;20134;-76
2022/09/20 02:01:41;;;;;;;12.05;4.13;;;;;;;;;;4952438;28;20094;-75
2022/09/20 02:04:19;;;;;;;19.00;4.85;;;;;;;;;;4952283;29;20031;-76
2022/09/20 02:06:57;;;;;;;26.02;7.18;;;;;;;;;;4952092;29;20023;-75
2022/09/20 02:09:47;;;;;;;19.15;5.93;;;;;;;;;;4952405;29;20615;-74
2022/09/20 02:12:31;;;;;;;14.48;3.97;;;;;;;;;;4959720;28;20043;-76
2022/09/20 02:15:12;;;;;;;14.75;4.40;;;;;;;;;;4950825;28;20031;-76
2022/09/20 02:17:41;;;;;;;20.27;4.50;;;;;;;;;;4951909;28;20369;-76
2022/09/20 02:20:15;;;;;;;20.70;4.70;;;;;;;;;;4951375;28;20392;-76
2022/09/20 02:22:59;;;;;;;13.67;4.23;;;;;;;;;;4951914;28;20453;-75
2022/09/20 02:25:28;;;;;;;18.15;5.63;;;;;;;;;;4951538;29;20027;-74
2022/09/20 02:28:04;;;;;;;19.88;5.22;;;;;;;;;;4951743;29;20034;-76
2022/09/20 02:30:33;;;;;;;16.52;5.15;;;;;;;;;;4951738;28;20098;-74
2022/09/20 02:33:18;;;;;;;15.45;6.35;;;;;;;;;;4952285;29;20027;-75
2022/09/20 02:36:02;;;;;;;17.65;5.57;;;;;;;;;;4952416;28;20110;-75
2022/09/20 02:38:39;;;;;;;14.38;4.05;;;;;;;;;;4952432;29;20559;-76
2022/09/20 02:41:24;;;;;;;9.95;3.42;;;;;;;;;;4951076;28;20067;-75
2022/09/20 02:44:08;;;;;;;11.80;3.15;;;;;;;;;;4952242;29;20042;-75
2022/09/20 02:46:37;;;;;;;16.20;4.15;;;;;;;;;;4952095;29;20027;-76
2022/09/20 02:49:28;;;;;;;13.50;3.40;;;;;;;;;;4952165;29;20036;-75
2022/09/20 02:51:57;;;;;;;12.00;3.58;;;;;;;;;;4952207;28;20031;-76
2022/09/20 02:54:44;;;;;;;12.93;3.15;;;;;;;;;;4952178;29;20024;-75
2022/09/20 02:57:17;;;;;;;12.43;3.35;;;;;;;;;;4950739;28;20023;-76
2022/09/20 02:59:43;;;;;;;12.45;3.47;;;;;;;;;;4952406;29;20033;-75
2022/09/20 03:02:18;;;;;;;17.30;6.68;;;;;;;;;;4951864;28;20019;-75
2022/09/20 03:05:05;;;;;;;17.75;6.90;;;;;;;;;;4967656;29;20035;-75
2022/09/20 03:07:39;;;;;;;18.85;6.35;;;;;;;;;;4957553;29;20123;-75
2022/09/20 03:10:28;;;;;;;14.38;4.25;;;;;;;;;;4961024;28;20103;-74
2022/09/20 03:13:01;;;;;;;17.40;3.58;;;;;;;;;;4972146;28;20393;-74
2022/09/20 03:15:27;;;;;;;10.85;3.13;;;;;;;;;;4964735;28;20027;-73
2022/09/20 03:18:02;;;;;;;10.27;3.40;;;;;;;;;;4964598;28;20035;-73
2022/09/20 03:20:40;;;;;;;14.40;3.65;;;;;;;;;;4963052;28;20051;-74
2022/09/20 03:23:09;;;;;;;16.20;4.43;;;;;;;;;;4959594;28;20035;-76
2022/09/20 03:25:46;;;;;;;14.20;4.00;;;;;;;;;;4960336;28;20024;-74
2022/09/20 03:28:35;;;;;;;11.07;3.58;;;;;;;;;;4954825;29;20032;-76
2022/09/20 03:31:08;;;;;;;11.88;3.47;;;;;;;;;;4951286;28;20023;-76
2022/09/20 03:33:52;;;;;;;18.52;5.18;;;;;;;;;;4952231;28;20480;-75
2022/09/20 03:36:36;;;;;;;11.90;4.23;;;;;;;;;;4952374;28;20137;-75
2022/09/20 03:39:20;;;;;;;16.60;4.30;;;;;;;;;;4952362;29;20032;-77
2022/09/20 03:41:57;;;;;;;16.63;4.27;;;;;;;;;;4952553;28;20305;-77
2022/09/20 03:44:38;;;;;;;13.80;4.10;;;;;;;;;;4991111;28;20029;-75
2022/09/20 03:47:27;;;;;;;9.65;3.70;;;;;;;;;;4951391;28;20024;-76
2022/09/20 03:49:53;;;;;;;17.67;4.15;;;;;;;;;;4941731;28;20511;-75
2022/09/20 03:52:19;;;;;;;15.88;3.63;;;;;;;;;;4951985;28;20023;-76
2022/09/20 03:54:57;;;;;;;14.60;3.88;;;;;;;;;;4952940;28;20046;-77
2022/09/20 03:57:33;;;;;;;15.55;3.70;;;;;;;;;;4951620;28;20023;-76
2022/09/20 04:00:20;;;;;;;12.98;3.80;;;;;;;;;;4951442;28;20040;-75
2022/09/20 04:02:46;;;;;;;9.82;3.97;;;;;;;;;;4951602;28;20392;-75
2022/09/20 04:05:17;;;;;;;13.27;4.72;;;;;;;;;;4951274;28;20107;-75
2022/09/20 04:07:49;;;;;;;11.93;4.20;;;;;;;;;;4952174;28;20019;-76
2022/09/20 04:10:18;;;;;;;13.13;4.05;;;;;;;;;;4953250;28;20042;-75
2022/09/20 04:12:52;;;;;;;11.20;4.28;;;;;;;;;;4958201;28;20027;-75
2022/09/20 04:15:31;;;;;;;11.00;4.00;;;;;;;;;;4951433;28;20484;-75
2022/09/20 04:18:19;;;;;;;11.50;4.15;;;;;;;;;;4952000;28;20023;-74
2022/09/20 04:20:48;;;;;;;13.90;3.80;;;;;;;;;;4950437;28;20034;-76
2022/09/20 04:23:34;;;;;;;13.77;3.92;;;;;;;;;;4952022;28;20027;-75
2022/09/20 04:26:01;;;;;;;11.15;3.38;;;;;;;;;;4949627;28;20059;-74
2022/09/20 04:28:46;;;;;;;11.23;4.13;;;;;;;;;;4953325;28;20477;-76
2022/09/20 04:31:32;;;;;;;10.35;3.65;;;;;;;;;;4951379;28;20085;-75
2022/09/20 04:33:59;;;;;;;14.40;6.05;;;;;;;;;;4950608;28;20023;-74
2022/09/20 04:36:27;;;;;;;13.73;5.00;;;;;;;;;;4950626;28;20035;-75
2022/09/20 04:39:14;;;;;;;11.85;3.75;;;;;;;;;;4951018;28;20034;-74
2022/09/20 04:41:43;;;;;;;8.93;3.67;;;;;;;;;;4950409;28;20027;-74
2022/09/20 04:44:27;;;;;;;11.65;4.50;;;;;;;;;;4954001;28;20392;-75
2022/09/20 04:46:53;;;;;;;14.45;5.50;;;;;;;;;;4953771;28;20075;-75
2022/09/20 04:49:34;;;;;;;9.65;3.97;;;;;;;;;;4953690;28;20063;-75
2022/09/20 04:52:13;;;;;;;8.13;3.72;;;;;;;;;;4954006;28;20041;-75
2022/09/20 04:54:45;;;;;;;10.07;3.50;;;;;;;;;;4953936;28;20027;-75
2022/09/20 04:57:18;;;;;;;11.27;3.72;;;;;;;;;;4953817;28;20035;-74
2022/09/20 05:00:11;;;;;;;11.32;3.72;;;;;;;;;;4953857;28;20024;-76
2022/09/20 05:02:50;;;;;;;10.30;3.60;;;;;;;;;;4954665;28;20015;-75
2022/09/20 05:05:23;;;;;;;9.50;3.85;;;;;;;;;;4954101;28;20016;-73
2022/09/20 05:08:25;;;;;;;12.95;5.22;;;11.50;99.40;;;;;;4953972;28;20027;-75
2022/09/20 05:11:16;;;;;;;9.75;3.28;;;9.70;99.90;;;;;;4954154;28;20055;-73
2022/09/20 05:13:57;;;;;;;9.13;3.42;;;9.50;99.90;;;;;;4954071;29;20051;-76
2022/09/20 05:16:46;;;;;;;11.52;3.92;;;9.40;99.90;;;;;;4952499;29;20028;-77
2022/09/20 05:19:33;;;;;;;8.10;3.80;;;9.50;99.90;;;;;;4953917;29;20055;-76
2022/09/20 05:22:28;;;;;;;10.40;4.07;;;;;;;;;;4954126;28;20027;-75
2022/09/20 05:25:01;;;;;;;;;;;9.50;99.90;;;;;;4949304;29;20437;-76
2022/09/20 05:27:49;;;;;;;8.98;3.53;;;9.60;99.90;;;;;;4954849;29;19930;-74
2022/09/20 05:30:28;;;;;;;10.43;3.15;;;9.60;99.90;;;;;;4954314;28;20027;-74
2022/09/20 05:33:04;;;;;;;8.15;3.28;;;9.60;99.90;;;;;;4955194;29;20084;-76
2022/09/20 05:35:35;;;;;;;15.93;4.38;;;9.60;99.90;;;;;;4951575;29;20625;-75
2022/09/20 05:38:07;;;;;;;10.90;4.18;;;;;;;;;;4954047;29;20030;-74
2022/09/20 05:40:38;;;;;;;8.60;3.42;;;;;;;;;;4953776;28;20027;-74
2022/09/20 05:43:12;;;;;;;8.80;3.63;;;;;;;;;;4954786;28;20028;-75
2022/09/20 05:45:56;;;;;;;10.68;3.83;;;;;;;;;;4953501;28;20120;-75
2022/09/20 05:48:41;;;;;;;17.65;4.63;;;;;;;;;;4953769;28;20031;-75
2022/09/20 05:51:30;;;;;;;13.40;4.07;;;;;;;;;;4953964;28;20158;-76
2022/09/20 05:54:15;;;;;;;9.32;3.25;;;;;;;;;;4954106;28;20050;-75
2022/09/20 05:57:01;;;;;;;9.20;3.72;;;;;;;;;;4959357;29;20023;-75
2022/09/20 05:59:36;;;;;;;8.02;3.80;;;;;;;;;;4959427;28;20036;-73
2022/09/20 06:02:22;;;;;;;9.00;3.63;;;;;;;;;;4953602;28;20023;-76
2022/09/20 06:04:49;;;;;;;18.23;5.82;;;;;;;;;;4953786;28;20053;-76
2022/09/20 06:07:29;;;;;;;20.45;5.97;;;;;;;;;;4953080;28;20020;-75
2022/09/20 06:10:19;;;;;;;16.02;5.50;;;;;;;;;;4953675;28;20214;-76
2022/09/20 06:12:49;;;;;;;14.77;6.32;;;;;;;;;;4947493;28;20032;-77
2022/09/20 06:15:21;;;;;;;21.65;6.47;;;;;;;;;;4953743;28;20474;-76
2022/09/20 06:17:59;;;;;;;11.68;5.05;;;;;;;;;;4953863;28;20114;-75
2022/09/20 06:20:25;;;;;;;16.52;5.53;;;;;;;;;;4954527;28;20114;-76
2022/09/20 06:22:53;;;;;;;26.30;9.77;;;;;;;;;;4954394;29;20030;-76
2022/09/20 06:25:21;;;;;;;15.90;5.18;;;;;;;;;;4953953;28;20030;-73
2022/09/20 06:28:09;;;;;;;16.85;4.07;;;;;;;;;;4953965;28;20038;-75
2022/09/20 06:30:38;;;;;;;16.50;4.10;;;;;;;;;;4954851;28;20492;-75
2022/09/20 06:33:07;;;;;;;10.63;4.20;;;;;;;;;;4955386;28;20099;-77
2022/09/20 06:35:37;;;;;;;13.45;4.55;;;;;;;;;;4957843;28;20030;-76
2022/09/20 06:43:41;;;;;;;9.02;4.15;;;;;;;;;;4975009;29;20034;-77
2022/09/20 06:46:07;;;;;;;20.85;3.92;;;;;;;;;;4966837;28;20027;-75
2022/09/20 06:48:34;;;;;;;11.80;3.63;;;;;;;;;;4963975;28;20080;-76
2022/09/20 06:51:00;;;;;;;21.38;3.80;;;;;;;;;;4963865;28;20465;-75
2022/09/20 06:53:31;;;;;;;17.25;4.07;;;;;;;;;;4965416;28;20069;-75
2022/09/20 06:55:57;;;;;;;11.65;3.25;;;;;;;;;;4968281;28;20057;-76
2022/09/20 06:58:23;;;;;;;19.60;3.55;;;;;;;;;;4969230;28;20035;-77
2022/09/20 07:00:49;;;;;;;22.80;7.78;;;;;;;;;;4972712;28;20035;-77
2022/09/20 07:03:18;;;;;;;37.58;13.52;;;;;;;;;;4965204;28;20035;-77
2022/09/20 07:05:44;;;;;;;51.53;18.20;;;;;;;;;;4952925;28;20029;-76
2022/09/20 07:08:10;;;;;;;39.05;14.15;;;;;;;;;;4957075;28;20067;-75
2022/09/20 07:10:37;;;;;;;67.35;23.35;;;;;;;;;;4969300;23;20136;-73
2022/09/20 07:13:03;;;;;;;65.20;24.38;;;;;;;;;;4955467;28;20093;-73
2022/09/20 07:15:33;;;;;;;14.55;4.43;;;;;;;;;;4954006;28;20084;-73
2022/09/20 07:18:00;;;;;;;15.00;3.80;;;;;;;;;;4969879;28;20035;-71
2022/09/20 07:20:26;;;;;;;10.75;3.38;;;;;;;;;;4953326;28;20157;-73
2022/09/20 07:22:52;;;;;;;17.52;4.18;;;;;;;;;;4953421;28;20035;-72
2022/09/20 07:25:19;;;;;;;11.23;3.30;;;;;;;;;;4953073;28;20038;-73
2022/09/20 07:27:45;;;;;;;17.00;4.05;;;;;;;;;;4952710;28;20042;-73
2022/09/20 07:30:12;;;;;;;16.23;3.38;;;;;;;;;;4952686;28;20035;-73
2022/09/20 07:32:39;;;;;;;17.05;3.28;;;;;;;;;;4952585;28;20023;-72
2022/09/20 07:35:06;;;;;;;16.88;3.95;;;;;;;;;;4952763;28;20480;-73
2022/09/20 07:37:32;;;;;;;22.90;4.07;;;;;;;;;;4952707;29;20027;-73
2022/09/20 07:39:58;;;;;;;21.05;4.93;;;;;;;;;;4953961;28;20050;-72
2022/09/20 07:42:24;;;;;;;16.63;3.10;;;;;;;;;;4955010;28;20031;-73
2022/09/20 07:44:51;;;;;;;18.13;2.70;;;;;;;;;;4955308;29;20484;-72
2022/09/20 07:47:17;;;;;;;16.05;2.83;;;;;;;;;;4952747;29;20023;-72
2022/09/20 07:49:43;;;;;;;19.45;2.90;;;;;;;;;;4952221;29;20487;-71
2022/09/20 07:52:10;;;;;;;20.52;3.42;;;;;;;;;;4952061;28;20112;-72
2022/09/20 07:54:36;;;;;;;20.15;3.33;;;;;;;;;;4951307;29;20015;-73
2022/09/20 07:57:04;;;;;;;22.13;4.28;;;;;;;;;;4954697;29;20109;-73
2022/09/20 07:59:30;;;;;;;21.67;3.45;;;;;;;;;;4966751;28;20423;-73
2022/09/20 08:01:59;;;;;;;20.35;3.00;;;;;;;;;;4952115;28;20525;-73
2022/09/20 08:04:25;;;;;;;22.60;3.35;;;;;;;;;;4952220;29;20114;-73
2022/09/20 08:06:51;;;;;;;19.67;2.90;;;;;;;;;;4953217;29;20059;-72
2022/09/20 08:09:18;;;;;;;20.02;3.17;;;;;;;;;;4956985;28;20089;-73
2022/09/20 08:11:45;;;;;;;20.95;3.00;;;;;;;;;;4951329;28;20047;-71
2022/09/20 08:14:14;;;;;;;28.27;3.33;;;;;;;;;;4952104;28;20074;-73
2022/09/20 08:16:42;;;;;;;17.45;2.80;;;;;;;;;;4953547;28;20023;-73
2022/09/20 08:19:11;;;;;;;21.05;3.83;;;;;;;;;;4958022;29;20031;-73
2022/09/20 08:21:37;;;;;;;22.98;3.10;;;;;;;;;;4959266;28;20487;-75
2022/09/20 08:24:03;;;;;;;18.13;2.72;;;;;;;;;;4958312;29;20088;-74
2022/09/20 08:26:30;;;;;;;20.83;2.42;;;;;;;;;;4957874;29;20035;-73
2022/09/20 08:28:57;;;;;;;14.48;2.45;;;;;;;;;;4956981;28;20027;-73
2022/09/20 08:31:25;;;;;;;19.88;2.45;;;;;;;;;;4958116;28;20110;-73
2022/09/20 08:33:51;;;;;;;16.25;2.30;;;;;;;;;;4957841;29;20023;-74
2022/09/20 08:36:21;;;;;;;18.20;3.03;;;;;;;;;;4959198;29;20031;-74
2022/09/20 08:38:48;;;;;;;14.20;2.33;;;;;;;;;;4987355;28;20031;-72
2022/09/20 08:41:18;;;;;;;8.20;1.90;;;;;;;;;;4958508;28;20067;-71
2022/09/20 08:43:55;;;;;;;13.90;2.50;;;;;;;;;;4959108;28;20042;-73
2022/09/20 08:46:27;;;;;;;17.58;2.65;;;;;;;;;;4960442;28;20028;-72
2022/09/20 08:48:53;;;;;;;16.63;2.30;;;;;;;;;;4959165;28;20027;-72
2022/09/20 08:51:20;;;;;;;18.73;2.58;;;;;;;;;;4958398;28;20028;-73
2022/09/20 08:53:47;;;;;;;20.05;2.80;;;;;;;;;;4958434;28;20555;-73
2022/09/20 08:56:14;;;;;;;21.98;2.55;;;;;;;;;;4958212;29;20034;-73
2022/09/20 08:58:40;;;;;;;20.83;2.97;;;;;;;;;;4961794;28;20035;-71
2022/09/20 09:01:06;;;;;;;13.40;2.30;;;;;;;;;;4962195;28;20092;-73
2022/09/20 09:03:33;;;;;;;14.60;2.55;;;;;;;;;;4957864;28;20435;-71
2022/09/20 09:06:00;;;;;;;10.80;2.08;;;;;;;;;;4961571;28;20035;-73
2022/09/20 09:08:46;;;;;;;13.93;2.53;;;;;;;;;;4957817;28;20134;-72
2022/09/20 09:11:13;;;;;;;14.75;2.60;;;;;;;;;;4956879;28;20111;-73
2022/09/20 09:13:42;;;;;;;19.20;2.83;;;;;;;;;;4957824;28;20377;-72
2022/09/20 09:16:11;;;;;;;17.83;2.50;;;;;;;;;;4957454;28;20039;-72
2022/09/20 09:18:39;;;;;;;12.05;2.33;;;;;;;;;;4955909;29;20023;-74
2022/09/20 09:21:07;;;;;;;11.55;2.33;;;;;;;;;;4956954;28;20454;-74
2022/09/20 09:23:52;;;;;;;13.32;2.30;;;;;;;;;;4957332;28;20430;-73
2022/09/20 09:26:22;;;;;;;12.90;2.47;;;;;;;;;;4957239;28;20028;-73
2022/09/20 09:29:07;;;;;;;12.38;2.30;;;;;;;;;;4956057;28;20161;-72
2022/09/20 09:31:33;;;;;;;12.80;2.65;;;;;;;;;;4953850;28;20451;-72
2022/09/20 09:33:59;;;;;;;13.85;3.75;;;;;;;;;;4953543;28;20035;-72
2022/09/20 09:36:25;;;;;;;16.63;3.67;;;;;;;;;;4953194;28;20106;-72
2022/09/20 09:39:11;;;;;;;13.57;2.70;;;;;;;;;;4953045;28;20100;-73
2022/09/20 09:41:37;;;;;;;18.42;2.50;;;;;;;;;;4953356;28;20042;-71
2022/09/20 09:44:19;;;;;;;19.58;2.28;;;;;;;;;;4956950;28;20024;-71
2022/09/20 09:46:45;;;;;;;19.13;2.10;;;;;;;;;;4956685;28;20027;-71
2022/09/20 09:49:18;;;;;;;10.82;1.95;;;;;;;;;;4953363;28;20031;-72
2022/09/20 09:52:03;;;;;;;13.73;2.27;;;;;;;;;;4953159;28;20027;-73
2022/09/20 09:54:30;;;;;;;17.83;3.70;;;;;;;;;;4953760;28;20023;-74
2022/09/20 09:57:19;;;;;;;13.35;2.45;;;;;;;;;;4955884;28;20481;-74
2022/09/20 10:00:06;;;;;;;16.20;3.45;;;;;;;;;;4957629;28;20723;-73
2022/09/20 10:02:39;;;;;;;12.68;2.40;;;;;;;;;;4954075;28;20032;-73
2022/09/20 10:05:11;;;;;;;15.00;2.80;;;;;;;;;;4953738;28;20027;-72
2022/09/20 10:07:44;;;;;;;9.55;2.58;;;;;;;;;;4953658;28;20031;-72
2022/09/20 10:10:28;;;;;;;16.33;2.80;;;;;;;;;;4954102;28;20106;-74
2022/09/20 10:12:54;;;;;;;12.73;2.53;;;;;;;;;;4954697;28;20061;-73
2022/09/20 10:15:39;;;;;;;11.40;2.13;;;;;;;;;;4955204;29;20024;-72
2022/09/20 10:18:31;;;;;;;11.13;1.95;;;;;;;;;;4953909;28;20027;-73
2022/09/20 10:21:16;;;;;;;12.75;2.63;;;;;;;;;;4952220;28;20043;-74
2022/09/20 10:23:43;;;;;;;;;;;;;;;;;;4956358;29;20054;-72
2022/09/20 10:26:19;;;;;;;9.73;2.08;;;;;;;;;;4959359;28;19917;-72
2022/09/20 10:29:04;;;;;;;10.57;2.25;;;;;;;;;;4964466;29;20024;-74
2022/09/20 10:31:30;;;;;;;13.20;2.10;;;;;;;;;;4970316;28;20023;-72
2022/09/20 10:34:15;;;;;;;18.95;9.68;;;;;;;;;;4970423;29;20090;-71
2022/09/20 10:36:49;;;;;;;9.88;2.25;;;;;;;;;;4970098;28;20011;-71
2022/09/20 10:39:34;;;;;;;15.98;2.33;;;;;;;;;;4971419;28;20034;-72
2022/09/20 10:45:04;;;;;;;9.68;2.25;;;;;;;;;;4969257;29;20058;-74
2022/09/20 10:47:34;;;;;;;10.25;2.15;;;;;;;;;;4967331;28;20168;-73
2022/09/20 10:50:07;;;;;;;9.95;2.00;;;;;;;;;;4966518;28;20058;-72
2022/09/20 10:52:33;;;;;;;11.80;2.10;;;;;;;;;;4968095;28;20032;-72
2022/09/20 10:55:05;;;;;;;15.32;2.30;;;;;;;;;;4972958;28;20023;-72
2022/09/20 10:57:51;;;;;;;9.70;2.17;;;;;;;;;;4974428;28;20087;-72
2022/09/20 11:00:17;;;;;;;13.60;2.63;;;;;;;;;;4973332;28;20046;-72
2022/09/20 11:03:01;;;;;;;12.20;2.10;;;;;;;;;;4972555;28;20023;-72
2022/09/20 11:05:46;;;;;;;11.50;2.50;;;;;;;;;;4972963;28;20031;-72
2022/09/20 11:08:17;;;;;;;19.27;2.50;;;;;;;;;;4973195;28;20079;-74
2022/09/20 11:10:51;;;;;;;10.48;2.33;;;;;;;;;;4954630;28;20035;-73
2022/09/20 11:13:22;;;;;;;12.50;2.15;;;;;;;;;;4954817;28;20031;-73
2022/09/20 11:15:52;;;;;;;8.85;2.00;;;;;;;;;;4952564;28;20034;-75
2022/09/20 11:18:24;;;;;;;12.15;3.15;;;;;;;;;;4952070;28;20050;-74
2022/09/20 11:20:56;;;;;;;12.88;2.90;;;;;;;;;;4952148;28;20036;-72
2022/09/20 11:23:25;;;;;;;9.60;1.92;;;;;;;;;;4953035;28;20023;-73
2022/09/20 11:25:53;;;;;;;8.68;2.28;;;;;;;;;;4952485;28;20028;-75
2022/09/20 11:28:26;;;;;;;9.88;2.25;;;;;;;;;;4952272;28;20027;-73
2022/09/20 11:31:06;;;;;;;11.32;2.08;;;;;;;;;;4952334;28;20019;-73
2022/09/20 11:33:40;;;;;;;13.75;2.78;;;;;;;;;;4951873;28;20102;-73
2022/09/20 11:36:08;;;;;;;8.27;1.90;;;;;;;;;;4954262;28;20027;-73
2022/09/20 11:38:57;;;;;;;5.53;2.03;;;;;;;;;;4953912;28;20434;-72
2022/09/20 11:41:27;;;;;;;8.82;1.70;;;;;;;;;;4947422;28;20118;-74
2022/09/20 11:43:55;;;;;;;7.78;1.95;;;;;;;;;;4952501;28;20039;-75
2022/09/20 11:46:27;;;;;;;9.77;1.55;;;;;;;;;;4952574;28;20028;-75
2022/09/20 11:49:02;;;;;;;12.98;2.33;;;;;;;;;;4953615;28;20039;-76
2022/09/20 11:51:48;;;;;;;11.77;2.28;;;;;;;;;;4983922;28;20025;-72
2022/09/20 11:54:23;;;;;;;13.15;2.40;;;;;;;;;;5052417;28;20375;-74
2022/09/20 11:56:51;;;;;;;6.43;1.80;;;;;;;;;;5051328;28;20017;-73
2022/09/20 11:59:37;;;;;;;12.18;2.13;;;;;;;;;;5051660;28;20212;-72
2022/09/20 12:02:05;;;;;;;10.02;2.10;;;;;;;;;;5051750;28;20028;-73
2022/09/20 12:04:33;;;;;;;10.50;2.38;;;;;;;;;;5051556;28;20025;-72
2022/09/20 12:07:03;;;;;;;9.52;2.25;;;;;;;;;;5051763;28;20486;-72
2022/09/20 12:09:31;;;;;;;8.68;2.20;;;;;;;;;;5053286;28;20466;-72
2022/09/20 12:11:58;;;;;;;9.55;2.15;;;;;;;;;;5054117;28;20036;-73
2022/09/20 12:14:28;;;;;;;13.85;2.15;;;;;;;;;;5053060;28;20044;-74
2022/09/20 12:16:55;;;;;;;14.13;2.15;;;;;;;;;;5051951;28;20021;-73
2022/09/20 12:19:21;;;;;;;14.82;2.20;;;;;;;;;;5052930;28;20036;-74
2022/09/20 12:21:59;;;;;;;10.32;2.30;;;;;;;;;;5053453;28;20029;-72
2022/09/20 12:24:28;;;;;;;13.40;2.00;;;;;;;;;;5053455;28;20038;-74
2022/09/20 12:26:55;;;;;;;7.93;1.83;;;;;;;;;;5052189;28;20390;-73
2022/09/20 12:29:24;;;;;;;9.98;1.98;;;;;;;;;;5053011;28;20033;-75
2022/09/20 12:31:51;;;;;;;5.68;1.80;;;;;;;;;;5055406;28;20025;-74
2022/09/20 12:34:17;;;;;;;10.32;2.50;;;;;;;;;;5056424;28;20116;-74
2022/09/20 12:36:45;;;;;;;11.43;2.67;;;;;;;;;;5053071;28;20052;-74
2022/09/20 12:39:11;;;;;;;9.98;2.80;;;;;;;;;;5052253;28;20049;-73
2022/09/20 12:41:45;;;;;;;10.73;2.20;;;;;;;;;;5050991;28;20497;-71
2022/09/20 12:44:23;;;;;;;12.18;3.22;;;;;;;;;;5052233;28;20398;-74
2022/09/20 12:46:54;;;;;;;7.50;2.03;;;;;;;;;;5051858;28;20059;-73
2022/09/20 12:52:49;;;;;;;9.48;1.92;;;;;;;;;;5051386;28;20025;-73
2022/09/20 12:55:11;;;;;;;5.65;1.65;;;;;;;;;;5064681;28;20546;-74
2022/09/20 12:57:37;;;;;;;6.55;1.95;;;;;;;;;;5050881;28;20125;-75
2022/09/20 13:00:05;;;;;;;11.35;2.05;;;;;;;;;;5051959;28;20025;-74
2022/09/20 13:02:41;;;;;;;7.78;1.83;;;;;;;;;;5051699;28;20025;-74
2022/09/20 13:05:25;;;;;;;10.82;1.88;;;;;;;;;;5055263;28;20033;-75
2022/09/20 13:07:53;;;;;;;8.57;2.13;;;;;;;;;;5063359;28;20037;-76
2022/09/20 13:10:25;;;;;;;12.00;4.43;;;;;;;;;;5066506;28;20032;-73
2022/09/20 13:12:57;;;;;;;12.38;2.58;;;;;;;;;;5010503;22;20517;-76
2022/09/20 13:15:23;;;;;;;13.65;2.47;;;;;;;;;;4955788;28;20073;-76
2022/09/20 13:17:51;;;;;;;12.15;2.83;;;;;;;;;;4969977;28;20024;-77
2022/09/20 13:20:20;;;;;;;31.10;16.27;;;;;;;;;;4970764;28;20023;-77
2022/09/20 13:22:47;;;;;;;7.43;2.13;;;;;;;;;;4971064;28;20024;-75
2022/09/20 13:25:14;;;;;;;9.23;1.88;;;;;;;;;;4963147;28;20155;-73
2022/09/20 13:27:46;;;;;;;5.88;1.60;;;;;;;;;;4958491;28;20055;-75
2022/09/20 13:30:23;;;;;;;7.60;1.90;;;;;;;;;;4958656;29;20050;-78
2022/09/20 13:32:50;;;;;;;8.05;1.83;;;;;;;;;;4959295;28;20019;-76
2022/09/20 13:35:17;;;;;;;11.15;1.67;;;;;;;;;;4960569;29;20028;-74
2022/09/20 13:37:49;;;;;;;5.78;1.60;;;;;;;;;;4955899;28;20106;-75
2022/09/20 13:40:18;;;;;;;6.35;1.75;;;;;;;;;;4959759;28;20400;-76
2022/09/20 13:42:45;;;;;;;9.70;2.00;;;;;;;;;;4963963;28;20077;-75
2022/09/20 13:45:13;;;;;;;6.40;1.35;;;;;;;;;;4969586;28;20065;-74
2022/09/20 13:47:42;;;;;;;13.45;1.92;;;;;;;;;;4968667;28;20027;-74
2022/09/20 13:50:17;;;;;;;8.48;1.67;;;;;;;;;;4957587;28;20019;-75
2022/09/20 13:52:45;;;;;;;7.38;1.90;;;;;;;;;;4955053;28;20020;-77
2022/09/20 13:55:29;;;;;;;8.25;1.70;;;;;;;;;;4962635;28;20024;-75
2022/09/20 13:57:58;;;;;;;8.77;1.75;;;;;;;;;;4961884;29;20495;-74
2022/09/20 14:00:25;;;;;;;8.57;1.83;;;;;;;;;;4956096;29;20035;-76
2022/09/20 14:02:53;;;;;;;7.68;1.70;;;;;;;;;;4955579;28;20058;-74
2022/09/20 14:05:20;;;;;;;5.65;1.77;;;;;;;;;;4958661;28;20281;-72
2022/09/20 14:07:47;;;;;;;6.30;1.65;;;;;;;;;;4960147;28;20036;-77
2022/09/20 14:10:45;;;;;;;4.68;1.77;;;;;;;;;;4957076;28;20133;-77
2022/09/20 14:13:14;;;;;;;5.38;1.67;;;;;;;;;;4984477;28;20070;-76
2022/09/20 14:15:42;;;;;;;5.60;1.38;;;;;;;;;;5053861;28;20029;-75
2022/09/20 14:18:11;;;;;;;6.95;1.50;;;;;;;;;;5056856;28;20031;-77
2022/09/20 14:20:38;;;;;;;5.93;1.33;;;;;;;;;;5066728;28;20315;-76
2022/09/20 14:23:04;;;;;;;9.27;1.90;;;;;;;;;;5020622;28;20027;-76
2022/09/20 14:25:30;;;;;;;4.13;1.33;;;;;;;;;;4954136;28;20112;-77
2022/09/20 14:28:15;;;;;;;5.68;1.48;;;;;;;;;;4955993;29;20031;-74
2022/09/20 14:30:41;;;;;;;10.88;1.90;;;;;;;;;;4957392;28;20035;-77
2022/09/20 14:33:14;;;;;;;10.85;1.75;;;;;;;;;;4954147;28;20031;-75
2022/09/20 14:35:46;;;;;;;8.63;1.60;;;;;;;;;;4954811;28;20031;-74
2022/09/20 14:38:15;;;;;;;8.77;2.15;;;;;;;;;;4956131;28;20066;-75
2022/09/20 14:40:42;;;;;;;9.18;1.83;;;;;;;;;;4954265;29;20110;-77
2022/09/20 14:43:24;;;;;;;7.60;1.80;;;;;;;;;;4952097;28;20318;-72
2022/09/20 14:45:52;;;;;;;9.00;1.70;;;;;;;;;;4953757;29;20049;-75
2022/09/20 14:48:18;;;;;;;4.65;1.50;;;;;;;;;;4954632;29;20038;-76
2022/09/20 14:50:46;;;;;;;7.88;1.35;;;;;;;;;;4953273;28;20031;-75
2022/09/20 14:53:12;;;;;;;5.18;1.35;;;;;;;;;;4954445;28;20554;-75
2022/09/20 14:55:40;;;;;;;6.15;1.80;;;;;;;;;;4955660;29;20027;-76
2022/09/20 14:58:14;;;;;;;2.67;0.93;;;;;;;;;;4955142;28;20027;-75
2022/09/20 15:00:50;;;;;;;4.47;1.27;;;;;;;;;;4953136;28;20035;-75
2022/09/20 15:03:20;;;;;;;8.80;2.17;;;;;;;;;;4955041;28;20027;-74
2022/09/20 15:05:48;;;;;;;6.63;1.80;;;;;;;;;;4938103;28;20039;-75
2022/09/20 15:08:16;;;;;;;7.10;1.80;;;;;;;;;;4955403;29;20027;-76
2022/09/20 15:10:42;;;;;;;6.55;1.65;;;;;;;;;;4954101;28;20484;-76
2022/09/20 15:13:11;;;;;;;5.57;1.65;;;;;;;;;;4958590;28;20039;-76
2022/09/20 15:15:37;;;;;;;3.97;1.48;;;;;;;;;;4955005;28;20391;-77